EGWU - Northolt
Distance from station: E 5mi, 14km
Updated: 12/14/2017 7:50pm
Mostly Cloudy
Mostly Cloudy
 Wind from W
Wind: W 10 mph , 17 km/h
Temperature: 37°F , 3°C
Wind Chill: 30°F , -1°C
Dew Point: 34°F , 1°C
Humidity: 87%
Barometer: 29.23 inHg , 990 hPa
Clouds: Mostly Cloudy
Visibility: 6 miles , 10 km
Cloud details: Few Clouds 3400 ft
Mostly Cloudy 21000 ft
2017/12/15 03:50 EGWU 150350Z AUTO 26009KT 9999 // FEW034/// BKN210/// 03/01 Q0990